Terminal Aerodrome Forecast
Issued by NWS La Crosse, WI

Current Version | Previous Version | Text Only | Print | Product List | Glossary On
Versions: 1 2 3 4 5 6 7 8 9 10 11 12 13 14 15 16 17 18 19 20 21 22 23 24 25
000
FTUS43 KARX 250532
TAFRST
TAF
KRST 250532Z 2506/2606 23022G33KT 4SM BLSN BR OVC012
     FM251200 25017G27KT P6SM SCT025
     FM260100 23012KT P6SM SKC=

USA.gov is the U.S. government's official web portal to all federal, state and local government web resources and services.